createdAt,value
2018-05-11T00:00:17.337Z,13.79
2018-05-11T00:01:17.296Z,13.78
2018-05-11T00:02:17.278Z,13.78
2018-05-11T00:03:17.315Z,13.78
2018-05-11T00:04:17.388Z,13.77
2018-05-11T00:05:17.364Z,13.74
2018-05-11T00:06:17.307Z,13.77
2018-05-11T00:07:17.296Z,13.77
2018-05-11T00:08:17.283Z,13.77
2018-05-11T00:09:17.247Z,13.75
2018-05-11T00:10:17.321Z,13.74
2018-05-11T00:11:17.304Z,13.76
2018-05-11T00:12:17.285Z,13.74
2018-05-11T00:13:17.393Z,13.76
2018-05-11T00:14:17.250Z,13.73
2018-05-11T00:15:17.262Z,13.71
2018-05-11T00:16:17.269Z,13.71
2018-05-11T00:17:17.266Z,13.71
2018-05-11T00:18:17.297Z,13.69
2018-05-11T00:19:17.295Z,13.61
2018-05-11T00:20:17.298Z,13.59
2018-05-11T00:21:17.316Z,13.55
2018-05-11T00:22:17.283Z,13.57
2018-05-11T00:23:17.325Z,13.59
2018-05-11T00:24:17.335Z,13.58
2018-05-11T00:25:17.288Z,13.59
2018-05-11T00:26:17.263Z,13.57
2018-05-11T00:27:17.826Z,13.57
2018-05-11T00:28:17.319Z,13.6
2018-05-11T00:29:17.276Z,13.58
2018-05-11T00:30:17.305Z,13.61
2018-05-11T00:31:17.305Z,13.61
2018-05-11T00:32:17.274Z,13.59
2018-05-11T00:33:17.268Z,13.6
2018-05-11T00:34:17.320Z,13.59
2018-05-11T00:35:17.293Z,13.61
2018-05-11T00:36:17.404Z,13.58
2018-05-11T00:37:17.731Z,13.59
2018-05-11T00:38:17.350Z,13.59
2018-05-11T00:39:17.280Z,13.61
2018-05-11T00:40:17.317Z,13.59
2018-05-11T00:41:17.328Z,13.61
2018-05-11T00:42:17.316Z,13.59
2018-05-11T00:43:17.322Z,13.57
2018-05-11T00:44:17.324Z,13.56
2018-05-11T00:45:17.325Z,13.56
2018-05-11T00:46:17.410Z,13.57
2018-05-11T00:47:17.637Z,13.56
2018-05-11T00:48:17.320Z,13.54
2018-05-11T00:49:17.313Z,13.53
2018-05-11T00:50:17.328Z,13.55
2018-05-11T00:51:17.284Z,13.51
2018-05-11T00:52:17.422Z,13.52
2018-05-11T00:53:17.320Z,13.52
2018-05-11T00:54:17.307Z,13.53
2018-05-11T00:55:17.379Z,13.54
2018-05-11T00:56:17.292Z,13.53
2018-05-11T00:57:17.310Z,13.52
2018-05-11T00:58:17.352Z,13.51
2018-05-11T00:59:17.310Z,13.52
2018-05-11T01:00:17.390Z,13.53
2018-05-11T01:01:17.301Z,13.53
2018-05-11T01:02:17.378Z,13.56
2018-05-11T01:03:17.379Z,13.54
2018-05-11T01:04:17.322Z,13.56
2018-05-11T01:05:17.345Z,13.57
2018-05-11T01:06:17.437Z,13.58
2018-05-11T01:07:17.511Z,13.58
2018-05-11T01:08:17.313Z,13.58
2018-05-11T01:09:17.391Z,13.61
2018-05-11T01:10:17.328Z,13.58
2018-05-11T01:11:17.358Z,13.58
2018-05-11T01:12:17.725Z,13.57
2018-05-11T01:13:17.384Z,13.58
2018-05-11T01:14:17.362Z,13.56
2018-05-11T01:15:17.360Z,13.54
2018-05-11T01:16:17.717Z,13.54
2018-05-11T01:17:17.350Z,13.54
2018-05-11T01:18:17.333Z,13.53
2018-05-11T01:19:17.319Z,13.56
2018-05-11T01:20:17.374Z,13.57
2018-05-11T01:21:17.344Z,13.58
2018-05-11T01:22:17.347Z,13.55
2018-05-11T01:23:17.345Z,13.58
2018-05-11T01:24:17.360Z,13.57
2018-05-11T01:25:17.311Z,13.57
2018-05-11T01:26:17.338Z,13.58
2018-05-11T01:27:17.738Z,13.57
2018-05-11T01:28:17.318Z,13.58
2018-05-11T01:29:17.326Z,13.61
2018-05-11T01:30:17.326Z,13.58
2018-05-11T01:31:17.310Z,13.6
2018-05-11T01:32:17.375Z,13.6
2018-05-11T01:33:17.331Z,13.63
2018-05-11T01:34:17.336Z,13.61
2018-05-11T01:35:17.344Z,13.59
2018-05-11T01:36:17.344Z,13.61
2018-05-11T01:37:17.369Z,13.6
2018-05-11T01:38:17.327Z,13.59
2018-05-11T01:39:17.351Z,13.62
2018-05-11T01:40:17.460Z,13.59
2018-05-11T01:41:17.342Z,13.59
2018-05-11T01:42:17.854Z,13.61
2018-05-11T01:43:17.390Z,13.6
2018-05-11T01:44:17.339Z,13.61
2018-05-11T01:45:17.326Z,13.6
2018-05-11T01:46:17.336Z,13.58
2018-05-11T01:47:17.348Z,13.57
2018-05-11T01:48:17.476Z,13.59
2018-05-11T01:49:17.385Z,13.56
2018-05-11T01:50:17.351Z,13.55
2018-05-11T01:51:17.345Z,13.55
2018-05-11T01:52:17.381Z,13.51
2018-05-11T01:53:17.315Z,13.53
2018-05-11T01:54:17.323Z,13.5
2018-05-11T01:55:17.358Z,13.52
2018-05-11T01:56:17.350Z,13.5
2018-05-11T01:57:17.347Z,13.49
2018-05-11T01:58:17.372Z,13.52
2018-05-11T01:59:17.381Z,13.49
2018-05-11T02:00:17.344Z,13.49
2018-05-11T02:01:17.356Z,13.49
2018-05-11T02:02:17.354Z,13.49
2018-05-11T02:03:17.440Z,13.49
2018-05-11T02:04:17.404Z,13.49
2018-05-11T02:05:17.319Z,13.47
2018-05-11T02:06:17.396Z,13.47
2018-05-11T02:07:17.386Z,13.47
2018-05-11T02:08:17.467Z,13.44
2018-05-11T02:09:17.373Z,13.43
2018-05-11T02:10:17.393Z,13.43
2018-05-11T02:11:17.407Z,13.42
2018-05-11T02:12:17.348Z,13.42
2018-05-11T02:13:17.346Z,13.41
2018-05-11T02:14:17.350Z,13.38
2018-05-11T02:15:17.337Z,13.38
2018-05-11T02:16:17.412Z,13.38
2018-05-11T02:17:17.342Z,13.36
2018-05-11T02:18:17.361Z,13.37
2018-05-11T02:19:17.373Z,13.36
2018-05-11T02:20:17.343Z,13.35
2018-05-11T02:21:17.358Z,13.32
2018-05-11T02:22:17.347Z,13.32
2018-05-11T02:23:17.344Z,13.31
2018-05-11T02:24:17.360Z,13.28
2018-05-11T02:25:17.340Z,13.3
2018-05-11T02:26:17.402Z,13.26
2018-05-11T02:27:17.335Z,13.29
2018-05-11T02:28:17.398Z,13.25
2018-05-11T02:29:17.359Z,13.24
2018-05-11T02:30:17.524Z,13.25
2018-05-11T02:31:17.370Z,13.25
2018-05-11T02:32:17.365Z,13.24
2018-05-11T02:33:17.412Z,13.24
2018-05-11T02:34:17.410Z,13.25
2018-05-11T02:35:17.380Z,13.25
2018-05-11T02:36:17.379Z,13.22
2018-05-11T02:37:17.365Z,13.23
2018-05-11T02:38:17.344Z,13.23
2018-05-11T02:39:17.381Z,13.24
2018-05-11T02:40:17.410Z,13.23
2018-05-11T02:41:17.481Z,13.21
2018-05-11T02:42:17.391Z,13.21
2018-05-11T02:43:17.390Z,13.2
2018-05-11T02:44:17.381Z,13.18
2018-05-11T02:45:17.375Z,13.15
2018-05-11T02:46:17.408Z,13.17
2018-05-11T02:47:17.370Z,13.18
2018-05-11T02:48:17.409Z,13.17
2018-05-11T02:49:17.362Z,13.17
2018-05-11T02:50:17.469Z,13.15
2018-05-11T02:51:17.477Z,13.15
2018-05-11T02:52:17.410Z,13.13
2018-05-11T02:53:17.489Z,13.15
2018-05-11T02:54:17.344Z,13.13
2018-05-11T02:55:17.360Z,13.13
2018-05-11T02:56:17.380Z,13.13
2018-05-11T02:57:17.401Z,13.12
2018-05-11T02:58:17.393Z,13.1
2018-05-11T02:59:17.453Z,13.07
2018-05-11T03:00:17.405Z,13.05
2018-05-11T03:01:17.482Z,13.04
2018-05-11T03:02:17.343Z,13.01
2018-05-11T03:03:17.379Z,12.96
2018-05-11T03:04:17.439Z,12.95
2018-05-11T03:05:17.361Z,12.94
2018-05-11T03:06:17.413Z,12.9
2018-05-11T03:07:17.452Z,12.91
2018-05-11T03:08:17.481Z,12.87
2018-05-11T03:09:17.379Z,12.89
2018-05-11T03:10:17.430Z,12.87
2018-05-11T03:11:17.424Z,12.87
2018-05-11T03:12:17.432Z,12.89
2018-05-11T03:13:17.486Z,12.87
2018-05-11T03:14:17.394Z,12.86
2018-05-11T03:15:17.388Z,12.86
2018-05-11T03:16:17.378Z,12.85
2018-05-11T03:17:17.373Z,12.84
2018-05-11T03:18:17.371Z,12.83
2018-05-11T03:19:17.403Z,12.81
2018-05-11T03:20:17.404Z,12.8
2018-05-11T03:21:17.462Z,12.81
2018-05-11T03:22:17.376Z,12.8
2018-05-11T03:23:17.375Z,12.79
2018-05-11T03:24:17.368Z,12.79
2018-05-11T03:25:17.410Z,12.79
2018-05-11T03:26:17.559Z,12.82
2018-05-11T03:27:17.573Z,12.79
2018-05-11T03:28:17.390Z,12.79
2018-05-11T03:29:17.482Z,12.77
2018-05-11T03:30:17.402Z,12.77
2018-05-11T03:31:17.439Z,12.76
2018-05-11T03:32:17.410Z,12.71
2018-05-11T03:33:17.501Z,12.71
2018-05-11T03:34:17.402Z,12.71
2018-05-11T03:35:17.367Z,12.7
2018-05-11T03:36:17.488Z,12.68
2018-05-11T03:37:17.369Z,12.66
2018-05-11T03:38:17.374Z,12.66
2018-05-11T03:39:17.423Z,12.63
2018-05-11T03:40:17.387Z,12.62
2018-05-11T03:41:17.395Z,12.63
2018-05-11T03:42:17.453Z,12.65
2018-05-11T03:43:17.421Z,12.65
2018-05-11T03:44:17.397Z,12.64
2018-05-11T03:45:17.441Z,12.64
2018-05-11T03:46:17.429Z,12.64
2018-05-11T03:47:17.384Z,12.65
2018-05-11T03:48:17.401Z,12.65
2018-05-11T03:49:17.414Z,12.65
2018-05-11T03:50:17.376Z,12.68
2018-05-11T03:51:17.423Z,12.65
2018-05-11T03:52:17.405Z,12.66
2018-05-11T03:53:17.396Z,12.6
2018-05-11T03:54:17.383Z,12.63
2018-05-11T03:55:17.438Z,12.59
2018-05-11T03:56:17.380Z,12.59
2018-05-11T03:57:17.392Z,12.59
2018-05-11T03:58:17.385Z,12.6
2018-05-11T03:59:17.394Z,12.59
2018-05-11T04:00:17.373Z,12.59
2018-05-11T04:01:17.408Z,12.59
2018-05-11T04:02:17.505Z,12.61
2018-05-11T04:03:17.441Z,12.58
2018-05-11T04:04:17.398Z,12.59
2018-05-11T04:05:17.404Z,12.58
2018-05-11T04:06:17.403Z,12.58
2018-05-11T04:07:17.412Z,12.58
2018-05-11T04:08:17.387Z,12.55
2018-05-11T04:09:17.451Z,12.57
2018-05-11T04:10:17.440Z,12.55
2018-05-11T04:11:17.386Z,12.58
2018-05-11T04:12:17.393Z,12.56
2018-05-11T04:13:18.351Z,12.57
2018-05-11T04:14:17.469Z,12.57
2018-05-11T04:15:17.422Z,12.54
2018-05-11T04:16:17.439Z,12.53
2018-05-11T04:17:17.397Z,12.52
2018-05-11T04:18:17.494Z,12.52
2018-05-11T04:19:17.696Z,12.47
2018-05-11T04:20:17.437Z,12.46
2018-05-11T04:21:17.352Z,12.45
2018-05-11T04:22:17.384Z,12.44
2018-05-11T04:23:17.452Z,12.42
2018-05-11T04:24:17.471Z,12.41
2018-05-11T04:25:17.447Z,12.38
2018-05-11T04:26:17.444Z,12.37
2018-05-11T04:27:17.418Z,12.34
2018-05-11T04:28:17.410Z,12.33
2018-05-11T04:29:17.397Z,12.32
2018-05-11T04:30:18.131Z,12.29
2018-05-11T04:31:17.436Z,12.29
2018-05-11T04:32:17.438Z,12.3
2018-05-11T04:33:17.389Z,12.27
2018-05-11T04:34:17.441Z,12.26
2018-05-11T04:35:17.507Z,12.27
2018-05-11T04:36:17.389Z,12.26
2018-05-11T04:37:18.188Z,12.26
2018-05-11T04:38:17.396Z,12.25
2018-05-11T04:39:17.475Z,12.27
2018-05-11T04:40:17.459Z,12.27
2018-05-11T04:41:17.429Z,12.27
2018-05-11T04:42:17.530Z,12.28
2018-05-11T04:43:17.425Z,12.31
2018-05-11T04:44:17.416Z,12.32
2018-05-11T04:45:18.115Z,12.33
2018-05-11T04:46:17.393Z,12.33
2018-05-11T04:47:17.412Z,12.37
2018-05-11T04:48:17.433Z,12.37
2018-05-11T04:49:17.408Z,12.37
2018-05-11T04:50:17.821Z,12.37
2018-05-11T04:51:17.457Z,12.39
2018-05-11T04:52:17.489Z,12.4
2018-05-11T04:53:17.424Z,12.39
2018-05-11T04:54:17.558Z,12.39
2018-05-11T04:55:17.540Z,12.4
2018-05-11T04:56:17.404Z,12.41
2018-05-11T04:57:17.416Z,12.44
2018-05-11T04:58:17.423Z,12.44
2018-05-11T04:59:17.407Z,12.47
2018-05-11T05:00:17.438Z,12.46
2018-05-11T05:01:17.479Z,12.49
2018-05-11T05:02:17.698Z,12.47
2018-05-11T05:03:17.370Z,12.46
2018-05-11T05:04:17.530Z,12.48
2018-05-11T05:05:17.434Z,12.45
2018-05-11T05:06:17.417Z,12.46
2018-05-11T05:07:17.460Z,12.45
2018-05-11T05:08:17.423Z,12.45
2018-05-11T05:09:17.392Z,12.46
2018-05-11T05:10:17.405Z,12.46
2018-05-11T05:11:17.427Z,12.49
2018-05-11T05:12:18.152Z,12.49
2018-05-11T05:13:17.403Z,12.51
2018-05-11T05:14:17.569Z,12.51
2018-05-11T05:15:17.460Z,12.52
2018-05-11T05:16:17.457Z,12.55
2018-05-11T05:17:17.429Z,12.56
2018-05-11T05:18:17.461Z,12.57
2018-05-11T05:19:17.954Z,12.6
2018-05-11T05:20:18.134Z,12.61
2018-05-11T05:21:17.435Z,12.63
2018-05-11T05:22:17.452Z,12.65
2018-05-11T05:23:17.409Z,12.66
2018-05-11T05:24:17.478Z,12.69
2018-05-11T05:25:17.434Z,12.69
2018-05-11T05:26:17.410Z,12.7
2018-05-11T05:27:17.391Z,12.72
2018-05-11T05:28:17.427Z,12.73
2018-05-11T05:29:17.605Z,12.74
2018-05-11T05:30:17.485Z,12.72
2018-05-11T05:31:17.410Z,12.75
2018-05-11T05:32:17.450Z,12.78
2018-05-11T05:33:17.514Z,12.76
2018-05-11T05:34:17.399Z,12.78
2018-05-11T05:35:17.433Z,12.77
2018-05-11T05:36:17.451Z,12.78
2018-05-11T05:37:17.486Z,12.81
2018-05-11T05:38:17.426Z,12.81
2018-05-11T05:39:18.724Z,12.81
2018-05-11T05:40:17.449Z,12.82
2018-05-11T05:41:17.429Z,12.82
2018-05-11T05:42:17.779Z,12.85
2018-05-11T05:43:17.540Z,12.86
2018-05-11T05:44:17.503Z,12.87
2018-05-11T05:45:17.461Z,12.89
2018-05-11T05:46:17.472Z,12.9
2018-05-11T05:47:17.478Z,12.91
2018-05-11T05:48:17.463Z,12.93
2018-05-11T05:49:17.445Z,12.94
2018-05-11T05:50:17.455Z,12.97
2018-05-11T05:51:17.567Z,12.98
2018-05-11T05:52:17.451Z,12.96
2018-05-11T05:53:17.478Z,12.99
2018-05-11T05:54:17.491Z,12.98
2018-05-11T05:55:17.520Z,12.99
2018-05-11T05:56:17.436Z,13.01
2018-05-11T05:57:17.449Z,13.02
2018-05-11T05:58:17.438Z,13.06
2018-05-11T05:59:17.478Z,13.07
2018-05-11T06:00:17.501Z,13.1
2018-05-11T06:01:17.477Z,13.11
2018-05-11T06:02:17.476Z,13.12
2018-05-11T06:03:17.449Z,13.13
2018-05-11T06:04:17.519Z,13.12
2018-05-11T06:05:17.416Z,13.16
2018-05-11T06:06:17.520Z,13.14
2018-05-11T06:07:17.809Z,13.18
2018-05-11T06:08:18.132Z,13.18
2018-05-11T06:09:17.410Z,13.18
2018-05-11T06:10:17.437Z,13.2
2018-05-11T06:11:17.684Z,13.21
2018-05-11T06:12:17.469Z,13.24
2018-05-11T06:13:17.428Z,13.25
2018-05-11T06:14:17.467Z,13.24
2018-05-11T06:15:17.444Z,13.27
2018-05-11T06:16:17.437Z,13.25
2018-05-11T06:17:17.602Z,13.29
2018-05-11T06:18:17.476Z,13.3
2018-05-11T06:19:17.467Z,13.31
2018-05-11T06:20:17.448Z,13.35
2018-05-11T06:21:17.461Z,13.36
2018-05-11T06:22:17.498Z,13.37
2018-05-11T06:23:17.483Z,13.39
2018-05-11T06:24:17.500Z,13.42
2018-05-11T06:25:17.494Z,13.44
2018-05-11T06:26:17.441Z,13.47
2018-05-11T06:27:17.477Z,13.47
2018-05-11T06:28:18.335Z,13.47
2018-05-11T06:29:17.605Z,13.5
2018-05-11T06:30:17.444Z,13.51
2018-05-11T06:31:17.462Z,13.51
2018-05-11T06:32:17.536Z,13.51
2018-05-11T06:33:17.464Z,13.55
2018-05-11T06:34:17.455Z,13.55
2018-05-11T06:35:17.476Z,13.57
2018-05-11T06:36:17.479Z,13.59
2018-05-11T06:37:17.489Z,13.6
2018-05-11T06:38:17.461Z,13.6
2018-05-11T06:39:17.507Z,13.62
2018-05-11T06:40:17.451Z,13.62
2018-05-11T06:41:17.533Z,13.66
2018-05-11T06:42:17.474Z,13.68
2018-05-11T06:43:17.499Z,13.65
2018-05-11T06:44:17.454Z,13.67
2018-05-11T06:45:17.458Z,13.68
2018-05-11T06:46:17.472Z,13.68
2018-05-11T06:47:17.885Z,13.69
2018-05-11T06:48:17.450Z,13.69
2018-05-11T06:49:17.467Z,13.74
2018-05-11T06:50:17.629Z,13.74
2018-05-11T06:51:17.462Z,13.81
2018-05-11T06:52:17.527Z,13.83
2018-05-11T06:53:17.497Z,13.88
2018-05-11T06:54:17.493Z,13.9
2018-05-11T06:55:17.591Z,13.91
2018-05-11T06:56:17.455Z,13.99
2018-05-11T06:57:17.477Z,13.98
2018-05-11T06:58:17.429Z,14.03
2018-05-11T06:59:17.603Z,14.05
2018-05-11T07:00:17.619Z,14.08
2018-05-11T07:01:18.357Z,14.11
2018-05-11T07:02:17.470Z,14.13
2018-05-11T07:03:17.704Z,14.14
2018-05-11T07:04:17.523Z,14.18
2018-05-11T07:05:17.464Z,14.21
2018-05-11T07:06:17.508Z,14.26
2018-05-11T07:07:17.919Z,14.29
2018-05-11T07:08:17.453Z,14.33
2018-05-11T07:09:17.470Z,14.36
2018-05-11T07:10:17.473Z,14.37
2018-05-11T07:11:17.433Z,14.36
2018-05-11T07:12:17.484Z,14.36
2018-05-11T07:13:17.489Z,14.42
2018-05-11T07:14:17.473Z,14.43
2018-05-11T07:15:17.634Z,14.48
2018-05-11T07:16:17.488Z,14.5
2018-05-11T07:17:17.484Z,14.54
2018-05-11T07:18:17.491Z,14.55
2018-05-11T07:19:19.311Z,14.54
2018-05-11T07:20:17.450Z,14.57
2018-05-11T07:21:17.437Z,14.6
2018-05-11T07:22:17.514Z,14.62
2018-05-11T07:23:17.485Z,14.62
2018-05-11T07:24:17.837Z,14.6
2018-05-11T07:25:17.475Z,14.61
2018-05-11T07:26:17.773Z,14.64
2018-05-11T07:27:17.921Z,14.67
2018-05-11T07:28:17.590Z,14.69
2018-05-11T07:29:17.602Z,14.73
2018-05-11T07:30:17.475Z,14.74
2018-05-11T07:31:17.458Z,14.75
2018-05-11T07:32:17.479Z,14.75
2018-05-11T07:33:17.495Z,14.62
2018-05-11T07:34:17.473Z,14.52
2018-05-11T07:35:17.476Z,14.48
2018-05-11T07:36:17.496Z,14.54
2018-05-11T07:37:17.528Z,14.6
2018-05-11T07:38:17.513Z,14.63
2018-05-11T07:39:17.571Z,14.69
2018-05-11T07:40:17.495Z,14.72
2018-05-11T07:41:17.503Z,14.8
2018-05-11T07:42:17.498Z,14.82
2018-05-11T07:43:19.006Z,14.84
2018-05-11T07:44:17.512Z,14.87
2018-05-11T07:45:17.499Z,14.91
2018-05-11T07:46:17.494Z,14.97
2018-05-11T07:47:17.543Z,15
2018-05-11T07:48:18.116Z,15.08
2018-05-11T07:49:17.583Z,15.15
2018-05-11T07:50:17.491Z,15.21
2018-05-11T07:51:17.552Z,15.27
2018-05-11T07:52:17.513Z,15.3
2018-05-11T07:53:17.623Z,15.34
2018-05-11T07:54:17.554Z,15.39
2018-05-11T07:55:17.535Z,15.41
2018-05-11T07:56:17.555Z,15.41
2018-05-11T07:57:17.660Z,15.46
2018-05-11T07:58:17.518Z,15.47
2018-05-11T07:59:17.537Z,15.45
2018-05-11T08:00:17.552Z,15.38
2018-05-11T08:01:17.557Z,15.41
2018-05-11T08:02:17.586Z,15.42
2018-05-11T08:03:17.498Z,15.47
2018-05-11T08:04:17.578Z,15.49
2018-05-11T08:05:17.652Z,15.53
2018-05-11T08:06:17.531Z,15.58
2018-05-11T08:07:17.884Z,15.62
2018-05-11T08:08:17.569Z,15.67
2018-05-11T08:09:17.630Z,15.69
2018-05-11T08:10:17.506Z,15.71
2018-05-11T08:11:17.618Z,15.74
2018-05-11T08:12:17.550Z,15.57
2018-05-11T08:13:17.549Z,15.59
2018-05-11T08:14:18.666Z,15.62
2018-05-11T08:15:17.645Z,15.66
2018-05-11T08:16:17.539Z,15.71
2018-05-11T08:17:17.515Z,15.73
2018-05-11T08:18:17.528Z,15.78
2018-05-11T08:19:17.543Z,15.81
2018-05-11T08:20:17.558Z,15.88
2018-05-11T08:21:18.147Z,15.91
2018-05-11T08:22:17.518Z,15.94
2018-05-11T08:23:17.551Z,16.01
2018-05-11T08:24:17.657Z,16.03
2018-05-11T08:25:17.546Z,16.06
2018-05-11T08:26:17.643Z,16.12
2018-05-11T08:27:17.535Z,16.08
2018-05-11T08:28:17.649Z,16.06
2018-05-11T08:29:17.561Z,15.99
2018-05-11T08:30:17.554Z,15.94
2018-05-11T08:31:17.550Z,15.96
2018-05-11T08:32:17.526Z,15.97
2018-05-11T08:33:17.589Z,15.98
2018-05-11T08:34:17.550Z,15.99
2018-05-11T08:35:17.577Z,15.95
2018-05-11T08:36:17.562Z,15.96
2018-05-11T08:37:17.538Z,15.95
2018-05-11T08:38:17.835Z,15.96
2018-05-11T08:39:17.581Z,15.93
2018-05-11T08:40:17.561Z,15.96
2018-05-11T08:41:17.555Z,16.02
2018-05-11T08:42:17.675Z,15.93
2018-05-11T08:43:17.567Z,15.96
2018-05-11T08:44:17.572Z,15.99
2018-05-11T08:45:17.547Z,16.06
2018-05-11T08:46:18.207Z,16.17
2018-05-11T08:47:17.529Z,16.23
2018-05-11T08:48:18.413Z,16.23
2018-05-11T08:49:18.163Z,16.28
2018-05-11T08:50:17.543Z,16.31
2018-05-11T08:51:17.601Z,16.34
2018-05-11T08:52:17.517Z,16.38
2018-05-11T08:53:17.551Z,16.43
2018-05-11T08:54:17.709Z,16.46
2018-05-11T08:55:17.557Z,16.48
2018-05-11T08:56:17.556Z,16.57
2018-05-11T08:57:18.639Z,16.59
2018-05-11T08:58:17.570Z,16.58
2018-05-11T08:59:17.536Z,16.54
2018-05-11T09:00:17.613Z,16.55
2018-05-11T09:01:17.550Z,16.59
2018-05-11T09:02:17.577Z,16.59
2018-05-11T09:03:17.550Z,16.62
2018-05-11T09:04:17.544Z,16.65
2018-05-11T09:05:17.588Z,16.7
2018-05-11T09:06:17.543Z,16.71
2018-05-11T09:07:17.585Z,16.71
2018-05-11T09:08:18.085Z,16.71
2018-05-11T09:09:17.584Z,16.7
2018-05-11T09:10:17.514Z,16.64
2018-05-11T09:11:17.536Z,16.6
2018-05-11T09:12:17.550Z,16.6
2018-05-11T09:13:17.556Z,16.64
2018-05-11T09:14:17.539Z,16.67
2018-05-11T09:15:17.568Z,16.73
2018-05-11T09:16:17.613Z,16.69
2018-05-11T09:17:17.572Z,16.77
2018-05-11T09:18:17.639Z,16.78
2018-05-11T09:19:17.552Z,16.8
2018-05-11T09:20:17.534Z,16.83
2018-05-11T09:21:17.608Z,16.86
2018-05-11T09:22:17.563Z,16.89
2018-05-11T09:23:17.582Z,16.97
2018-05-11T09:24:17.597Z,16.98
2018-05-11T09:25:17.605Z,16.99
2018-05-11T09:26:17.614Z,17.03
2018-05-11T09:27:17.592Z,17.08
2018-05-11T09:28:17.631Z,17.09
2018-05-11T09:29:17.628Z,17.15
2018-05-11T09:30:17.571Z,17.23
2018-05-11T09:31:18.622Z,17.31
2018-05-11T09:32:17.555Z,17.38
2018-05-11T09:33:17.558Z,17.42
2018-05-11T09:34:17.566Z,17.5
2018-05-11T09:35:17.572Z,17.53
2018-05-11T09:36:17.590Z,17.55
2018-05-11T09:37:17.580Z,17.57
2018-05-11T09:38:17.571Z,17.58
2018-05-11T09:39:17.597Z,17.6
2018-05-11T09:40:17.653Z,17.52
2018-05-11T09:41:17.576Z,17.42
2018-05-11T09:42:17.676Z,17.45
2018-05-11T09:43:17.568Z,17.45
2018-05-11T09:44:17.564Z,17.5
2018-05-11T09:45:17.950Z,17.49
2018-05-11T09:46:17.650Z,17.53
2018-05-11T09:47:17.660Z,17.57
2018-05-11T09:48:17.562Z,17.56
2018-05-11T09:49:17.578Z,17.39
2018-05-11T09:50:17.573Z,17.32
2018-05-11T09:51:17.582Z,17.39
2018-05-11T09:52:17.892Z,17.45
2018-05-11T09:53:17.585Z,17.54
2018-05-11T09:54:17.608Z,17.62
2018-05-11T09:55:17.557Z,17.7
2018-05-11T09:56:17.620Z,17.71
2018-05-11T09:57:17.766Z,17.73
2018-05-11T09:58:17.665Z,17.73
2018-05-11T09:59:17.606Z,17.73
2018-05-11T10:00:17.577Z,17.73
2018-05-11T10:01:17.583Z,17.74
2018-05-11T10:02:17.619Z,17.6
2018-05-11T10:03:17.565Z,17.52
2018-05-11T10:04:17.576Z,17.48
2018-05-11T10:05:17.610Z,17.56
2018-05-11T10:06:17.572Z,17.55
2018-05-11T10:07:17.580Z,17.59
2018-05-11T10:08:17.600Z,17.61
2018-05-11T10:09:17.569Z,17.61
2018-05-11T10:10:17.584Z,17.63
2018-05-11T10:11:17.575Z,17.63
2018-05-11T10:12:17.677Z,17.64
2018-05-11T10:13:17.574Z,17.68
2018-05-11T10:14:17.654Z,17.72
2018-05-11T10:15:17.560Z,17.73
2018-05-11T10:16:17.551Z,17.78
2018-05-11T10:17:17.607Z,17.83
2018-05-11T10:18:17.559Z,17.91
2018-05-11T10:19:17.609Z,17.98
2018-05-11T10:20:17.705Z,18.05
2018-05-11T10:21:17.545Z,18.1
2018-05-11T10:22:17.548Z,18.18
2018-05-11T10:23:17.552Z,18.23
2018-05-11T10:24:17.620Z,18.28
2018-05-11T10:25:17.585Z,18.33
2018-05-11T10:26:17.625Z,18.34
2018-05-11T10:27:17.593Z,18.34
2018-05-11T10:28:17.607Z,18.32
2018-05-11T10:29:17.590Z,18.32
2018-05-11T10:30:17.572Z,18.31
2018-05-11T10:31:17.564Z,18.23
2018-05-11T10:32:17.575Z,18.26
2018-05-11T10:33:17.601Z,18.26
2018-05-11T10:34:17.546Z,18.27
2018-05-11T10:35:17.683Z,18.26
2018-05-11T10:36:17.613Z,18.28
2018-05-11T10:37:17.578Z,18.29
2018-05-11T10:38:17.573Z,18.26
2018-05-11T10:39:17.580Z,18.27
2018-05-11T10:40:17.650Z,18.2
2018-05-11T10:41:17.590Z,18.2
2018-05-11T10:42:17.564Z,18.2
2018-05-11T10:43:17.599Z,18.22
2018-05-11T10:44:17.573Z,18.26
2018-05-11T10:45:17.713Z,18.27
2018-05-11T10:46:17.905Z,18.29
2018-05-11T10:47:17.557Z,18.3
2018-05-11T10:48:17.607Z,18.31
2018-05-11T10:49:17.560Z,18.24
2018-05-11T10:50:17.662Z,18.24
2018-05-11T10:51:17.574Z,18.23
2018-05-11T10:52:17.662Z,18.23
2018-05-11T10:53:17.594Z,18.26
2018-05-11T10:54:17.638Z,18.27
2018-05-11T10:55:17.608Z,18.27
2018-05-11T10:56:17.576Z,18.29
2018-05-11T10:57:17.706Z,18.26
2018-05-11T10:58:17.633Z,18.15
2018-05-11T10:59:17.914Z,18.16
2018-05-11T11:00:17.709Z,18.18
2018-05-11T11:01:17.664Z,18.21
2018-05-11T11:02:18.268Z,18.32
2018-05-11T11:03:17.657Z,18.4
2018-05-11T11:04:17.613Z,18.47
2018-05-11T11:05:17.620Z,18.54
2018-05-11T11:06:17.691Z,18.62
2018-05-11T11:07:17.710Z,18.71
2018-05-11T11:08:17.732Z,18.81
2018-05-11T11:09:17.596Z,18.85
2018-05-11T11:10:17.731Z,18.91
2018-05-11T11:11:17.588Z,18.92
2018-05-11T11:12:17.618Z,18.93
2018-05-11T11:13:17.597Z,18.96
2018-05-11T11:14:17.868Z,19
2018-05-11T11:15:17.610Z,19.02
2018-05-11T11:16:17.657Z,19.01
2018-05-11T11:17:17.618Z,19.01
2018-05-11T11:18:17.697Z,19.01
2018-05-11T11:19:17.685Z,19.03
2018-05-11T11:20:17.610Z,19.06
2018-05-11T11:21:17.761Z,19.13
2018-05-11T11:22:17.632Z,19.15
2018-05-11T11:23:17.565Z,19.24
2018-05-11T11:24:17.612Z,19.28
2018-05-11T11:25:17.694Z,19.36
2018-05-11T11:26:18.820Z,19.45
2018-05-11T11:27:17.827Z,19.45
2018-05-11T11:28:17.703Z,19.41
2018-05-11T11:29:17.858Z,19.46
2018-05-11T11:30:17.696Z,19.51
2018-05-11T11:31:17.591Z,19.58
2018-05-11T11:32:17.743Z,19.67
2018-05-11T11:33:17.778Z,19.74
2018-05-11T11:34:21.727Z,19.79
2018-05-11T11:35:17.765Z,19.86
2018-05-11T11:36:17.595Z,19.89
2018-05-11T11:37:17.764Z,19.91
2018-05-11T11:38:17.761Z,19.97
2018-05-11T11:39:17.779Z,20.12
2018-05-11T11:40:17.845Z,20.13
2018-05-11T11:41:17.775Z,20.16
2018-05-11T11:42:18.315Z,20.19
2018-05-11T11:43:17.620Z,20.25
2018-05-11T11:44:17.614Z,20.32
2018-05-11T11:45:17.812Z,20.36
2018-05-11T11:46:17.737Z,20.39
2018-05-11T11:47:17.792Z,20.44
2018-05-11T11:48:17.802Z,20.48
2018-05-11T11:49:17.753Z,20.5
2018-05-11T11:50:17.764Z,20.51
2018-05-11T11:51:17.774Z,20.5
2018-05-11T11:52:17.622Z,20.5
2018-05-11T11:53:17.777Z,20.55
2018-05-11T11:54:17.801Z,20.58
2018-05-11T11:55:17.716Z,20.58
2018-05-11T11:56:18.012Z,20.58
2018-05-11T11:57:17.718Z,20.58
2018-05-11T11:58:17.842Z,20.61
2018-05-11T11:59:17.838Z,20.61
2018-05-11T12:00:17.740Z,20.56
2018-05-11T12:01:17.767Z,20.56
2018-05-11T12:02:17.621Z,20.54
2018-05-11T12:03:17.654Z,20.5
2018-05-11T12:04:17.852Z,20.47
2018-05-11T12:05:17.773Z,20.49
2018-05-11T12:06:18.828Z,20.48
2018-05-11T12:07:19.848Z,20.44
2018-05-11T12:08:17.713Z,20.49
2018-05-11T12:09:17.780Z,20.52
2018-05-11T12:10:17.680Z,20.59
2018-05-11T12:11:17.640Z,20.71
2018-05-11T12:12:17.863Z,20.78
2018-05-11T12:13:17.621Z,20.82
2018-05-11T12:14:17.836Z,20.85
2018-05-11T12:15:17.832Z,20.82
2018-05-11T12:16:17.741Z,20.71
2018-05-11T12:17:17.903Z,20.82
2018-05-11T12:18:17.831Z,20.88
2018-05-11T12:19:17.833Z,20.93
2018-05-11T12:20:17.873Z,20.99
2018-05-11T12:21:17.768Z,21.08
2018-05-11T12:22:17.629Z,21.12
2018-05-11T12:23:17.967Z,21.19
2018-05-11T12:24:17.869Z,21.15
2018-05-11T12:25:17.793Z,21.18
2018-05-11T12:26:18.386Z,21.19
2018-05-11T12:27:17.710Z,21.23
2018-05-11T12:28:17.823Z,21.29
2018-05-11T12:29:18.744Z,21.31
2018-05-11T12:30:17.728Z,21.39
2018-05-11T12:31:17.667Z,21.46
2018-05-11T12:32:17.682Z,21.46
2018-05-11T12:33:17.825Z,21.45
2018-05-11T12:34:17.663Z,21.46
2018-05-11T12:35:17.691Z,21.56
2018-05-11T12:36:17.654Z,21.5
2018-05-11T12:37:17.646Z,21.37
2018-05-11T12:38:17.653Z,21.32
2018-05-11T12:39:17.890Z,21.16
2018-05-11T12:40:17.677Z,21.18
2018-05-11T12:41:17.672Z,21.04
2018-05-11T12:42:17.664Z,21.01
2018-05-11T12:43:17.702Z,20.93
2018-05-11T12:44:17.705Z,20.92
2018-05-11T12:45:17.644Z,20.88
2018-05-11T12:46:17.650Z,20.85
2018-05-11T12:47:17.661Z,20.89
2018-05-11T12:48:17.649Z,21
2018-05-11T12:49:17.697Z,21.12
2018-05-11T12:50:17.725Z,21.19
2018-05-11T12:51:17.661Z,21.28
2018-05-11T12:52:17.667Z,21.38
2018-05-11T12:53:17.695Z,21.43
2018-05-11T12:54:17.836Z,21.52